Industrial Montana, Puerto Rico
Current Conditions -  °F | °C
As of 9:50 AM on Monday 24 Nov 2014 (Local Time) from TJBQ Reporting Station
Scattered Clouds Scattered Clouds  
Wind Chill: 82°   Ceiling: Unl
Heat Index: 87°   Visibility: 10mi
Dew Point: 72°   Wind: 20mph
Humidity: 70%   Direction: 90°E
Pressure: 30.08"   Gusts: 29mph
Location:  18.4409°N, 67.1508°W
Report Text: TJBQ 241350Z 09017G25KT 10SM SCT030 28/22 A3008 RMK RWY 08 ATIS D
Loading
Personal Weather Stations






























Interactive Weather Map New forecast layout! Learn more

10-Day Weather Forecast

Advertisements
Track Severe Weather on mobile